sensor_id;sensor_type;location;lat;lon;timestamp;temperature;humidity
49379;DHT22;35254;47.990;-1.608;2023-06-26T00:00:26;26.60;53.70
49379;DHT22;35254;47.990;-1.608;2023-06-26T00:02:52;26.60;53.90
49379;DHT22;35254;47.990;-1.608;2023-06-26T00:05:18;26.60;53.50
49379;DHT22;35254;47.990;-1.608;2023-06-26T00:07:43;26.60;53.50
49379;DHT22;35254;47.990;-1.608;2023-06-26T00:10:09;26.60;53.30
49379;DHT22;35254;47.990;-1.608;2023-06-26T00:12:34;26.60;53.40
49379;DHT22;35254;47.990;-1.608;2023-06-26T00:15:00;26.60;53.50
49379;DHT22;35254;47.990;-1.608;2023-06-26T00:17:26;26.60;53.50
49379;DHT22;35254;47.990;-1.608;2023-06-26T00:19:52;26.60;53.40
49379;DHT22;35254;47.990;-1.608;2023-06-26T00:22:18;26.60;53.30
49379;DHT22;35254;47.990;-1.608;2023-06-26T00:24:44;26.60;53.40
49379;DHT22;35254;47.990;-1.608;2023-06-26T00:27:12;26.60;53.20
49379;DHT22;35254;47.990;-1.608;2023-06-26T00:29:38;26.60;53.30
49379;DHT22;35254;47.990;-1.608;2023-06-26T00:32:04;26.50;53.20
49379;DHT22;35254;47.990;-1.608;2023-06-26T00:34:30;26.60;53.50
49379;DHT22;35254;47.990;-1.608;2023-06-26T00:36:55;26.60;53.40
49379;DHT22;35254;47.990;-1.608;2023-06-26T00:39:21;26.60;53.20
49379;DHT22;35254;47.990;-1.608;2023-06-26T00:41:47;26.50;53.20
49379;DHT22;35254;47.990;-1.608;2023-06-26T00:44:13;26.50;53.40
49379;DHT22;35254;47.990;-1.608;2023-06-26T00:46:38;26.60;53.30
49379;DHT22;35254;47.990;-1.608;2023-06-26T00:49:04;26.50;53.30
49379;DHT22;35254;47.990;-1.608;2023-06-26T00:51:30;26.50;53.30
49379;DHT22;35254;47.990;-1.608;2023-06-26T00:53:57;26.50;53.10
49379;DHT22;35254;47.990;-1.608;2023-06-26T00:56:23;26.50;53.40
49379;DHT22;35254;47.990;-1.608;2023-06-26T00:58:49;26.50;53.40
49379;DHT22;35254;47.990;-1.608;2023-06-26T01:01:15;26.50;53.10
49379;DHT22;35254;47.990;-1.608;2023-06-26T01:03:44;26.50;53.10
49379;DHT22;35254;47.990;-1.608;2023-06-26T01:06:14;26.50;53.00
49379;DHT22;35254;47.990;-1.608;2023-06-26T01:08:41;26.50;53.10
49379;DHT22;35254;47.990;-1.608;2023-06-26T01:11:07;26.50;53.10
49379;DHT22;35254;47.990;-1.608;2023-06-26T01:13:33;26.50;53.10
49379;DHT22;35254;47.990;-1.608;2023-06-26T01:15:59;26.50;53.00
49379;DHT22;35254;47.990;-1.608;2023-06-26T01:18:26;26.40;53.00
49379;DHT22;35254;47.990;-1.608;2023-06-26T01:20:53;26.50;53.10
49379;DHT22;35254;47.990;-1.608;2023-06-26T01:23:47;26.50;52.70
49379;DHT22;35254;47.990;-1.608;2023-06-26T01:26:20;26.50;53.00
49379;DHT22;35254;47.990;-1.608;2023-06-26T01:28:46;26.50;53.00
49379;DHT22;35254;47.990;-1.608;2023-06-26T01:31:13;26.50;52.90
49379;DHT22;35254;47.990;-1.608;2023-06-26T01:33:40;26.50;53.10
49379;DHT22;35254;47.990;-1.608;2023-06-26T01:36:06;26.40;53.00
49379;DHT22;35254;47.990;-1.608;2023-06-26T01:38:32;26.40;52.80
49379;DHT22;35254;47.990;-1.608;2023-06-26T01:40:58;26.50;52.90
49379;DHT22;35254;47.990;-1.608;2023-06-26T01:57:46;26.40;52.70
49379;DHT22;35254;47.990;-1.608;2023-06-26T02:00:15;26.40;52.70
49379;DHT22;35254;47.990;-1.608;2023-06-26T02:02:43;26.40;52.50
49379;DHT22;35254;47.990;-1.608;2023-06-26T02:05:09;26.40;52.90
49379;DHT22;35254;47.990;-1.608;2023-06-26T02:07:34;26.40;52.70
49379;DHT22;35254;47.990;-1.608;2023-06-26T02:10:01;26.40;52.50
49379;DHT22;35254;47.990;-1.608;2023-06-26T02:12:26;26.40;52.70
49379;DHT22;35254;47.990;-1.608;2023-06-26T02:14:52;26.40;52.70
49379;DHT22;35254;47.990;-1.608;2023-06-26T02:17:17;26.40;52.60
49379;DHT22;35254;47.990;-1.608;2023-06-26T02:19:43;26.40;52.60
49379;DHT22;35254;47.990;-1.608;2023-06-26T02:22:16;26.40;52.80
49379;DHT22;35254;47.990;-1.608;2023-06-26T02:24:42;26.30;52.70
49379;DHT22;35254;47.990;-1.608;2023-06-26T02:27:09;26.40;52.70
49379;DHT22;35254;47.990;-1.608;2023-06-26T02:29:35;26.30;52.60
49379;DHT22;35254;47.990;-1.608;2023-06-26T02:32:00;26.30;52.60
49379;DHT22;35254;47.990;-1.608;2023-06-26T02:34:26;26.30;52.50
49379;DHT22;35254;47.990;-1.608;2023-06-26T02:36:52;26.30;52.60
49379;DHT22;35254;47.990;-1.608;2023-06-26T02:39:20;26.30;52.70
49379;DHT22;35254;47.990;-1.608;2023-06-26T02:41:46;26.30;52.40
49379;DHT22;35254;47.990;-1.608;2023-06-26T02:44:12;26.30;52.50
49379;DHT22;35254;47.990;-1.608;2023-06-26T02:46:38;26.30;52.50
49379;DHT22;35254;47.990;-1.608;2023-06-26T02:49:04;26.30;52.60
49379;DHT22;35254;47.990;-1.608;2023-06-26T02:51:32;26.20;52.40
49379;DHT22;35254;47.990;-1.608;2023-06-26T02:53:57;26.30;52.50
49379;DHT22;35254;47.990;-1.608;2023-06-26T02:56:23;26.20;52.40
49379;DHT22;35254;47.990;-1.608;2023-06-26T02:58:48;26.20;52.30
49379;DHT22;35254;47.990;-1.608;2023-06-26T03:01:14;26.20;52.30
49379;DHT22;35254;47.990;-1.608;2023-06-26T03:03:41;26.20;52.40
49379;DHT22;35254;47.990;-1.608;2023-06-26T03:06:07;26.20;52.30
49379;DHT22;35254;47.990;-1.608;2023-06-26T03:08:36;26.20;52.20
49379;DHT22;35254;47.990;-1.608;2023-06-26T03:11:02;26.20;52.40
49379;DHT22;35254;47.990;-1.608;2023-06-26T03:13:27;26.20;52.20
49379;DHT22;35254;47.990;-1.608;2023-06-26T03:15:53;26.20;52.10
49379;DHT22;35254;47.990;-1.608;2023-06-26T03:18:18;26.20;52.20
49379;DHT22;35254;47.990;-1.608;2023-06-26T03:20:44;26.20;51.90
49379;DHT22;35254;47.990;-1.608;2023-06-26T03:23:10;26.20;52.00
49379;DHT22;35254;47.990;-1.608;2023-06-26T03:25:35;26.20;51.80
49379;DHT22;35254;47.990;-1.608;2023-06-26T03:28:01;26.20;51.70
49379;DHT22;35254;47.990;-1.608;2023-06-26T03:30:27;26.20;51.70
49379;DHT22;35254;47.990;-1.608;2023-06-26T03:32:52;26.20;51.50
49379;DHT22;35254;47.990;-1.608;2023-06-26T03:35:18;26.10;51.50
49379;DHT22;35254;47.990;-1.608;2023-06-26T03:37:44;26.10;51.60
49379;DHT22;35254;47.990;-1.608;2023-06-26T03:40:10;26.10;51.30
49379;DHT22;35254;47.990;-1.608;2023-06-26T03:42:36;26.10;51.20
49379;DHT22;35254;47.990;-1.608;2023-06-26T03:45:01;26.10;51.10
49379;DHT22;35254;47.990;-1.608;2023-06-26T03:47:27;26.10;51.00
49379;DHT22;35254;47.990;-1.608;2023-06-26T03:49:53;26.10;51.10
49379;DHT22;35254;47.990;-1.608;2023-06-26T03:52:18;26.10;51.10
49379;DHT22;35254;47.990;-1.608;2023-06-26T03:54:44;26.10;51.00
49379;DHT22;35254;47.990;-1.608;2023-06-26T03:57:09;26.10;51.00
49379;DHT22;35254;47.990;-1.608;2023-06-26T03:59:36;26.00;50.90
49379;DHT22;35254;47.990;-1.608;2023-06-26T04:02:02;26.00;51.00
49379;DHT22;35254;47.990;-1.608;2023-06-26T04:04:28;26.00;51.20
49379;DHT22;35254;47.990;-1.608;2023-06-26T04:06:55;26.00;51.10
49379;DHT22;35254;47.990;-1.608;2023-06-26T04:09:21;26.00;51.10
49379;DHT22;35254;47.990;-1.608;2023-06-26T04:11:46;26.00;50.90
49379;DHT22;35254;47.990;-1.608;2023-06-26T04:14:12;26.00;50.80
49379;DHT22;35254;47.990;-1.608;2023-06-26T04:16:38;26.00;51.00
49379;DHT22;35254;47.990;-1.608;2023-06-26T04:19:03;26.00;50.80
49379;DHT22;35254;47.990;-1.608;2023-06-26T04:21:30;26.00;50.80
49379;DHT22;35254;47.990;-1.608;2023-06-26T04:23:56;26.00;50.70
49379;DHT22;35254;47.990;-1.608;2023-06-26T04:26:22;26.00;50.90
49379;DHT22;35254;47.990;-1.608;2023-06-26T04:28:47;26.00;50.90
49379;DHT22;35254;47.990;-1.608;2023-06-26T04:31:13;26.00;50.70
49379;DHT22;35254;47.990;-1.608;2023-06-26T04:33:39;25.90;50.90
49379;DHT22;35254;47.990;-1.608;2023-06-26T04:36:05;25.90;50.80
49379;DHT22;35254;47.990;-1.608;2023-06-26T04:38:34;25.90;50.70
49379;DHT22;35254;47.990;-1.608;2023-06-26T04:41:00;25.90;50.60
49379;DHT22;35254;47.990;-1.608;2023-06-26T04:43:26;25.90;50.70
49379;DHT22;35254;47.990;-1.608;2023-06-26T04:45:52;25.90;50.60
49379;DHT22;35254;47.990;-1.608;2023-06-26T04:48:18;26.00;50.90
49379;DHT22;35254;47.990;-1.608;2023-06-26T04:50:43;25.90;50.60
49379;DHT22;35254;47.990;-1.608;2023-06-26T04:53:11;25.90;50.50
49379;DHT22;35254;47.990;-1.608;2023-06-26T04:55:36;25.90;50.50
49379;DHT22;35254;47.990;-1.608;2023-06-26T04:58:02;25.90;50.60
49379;DHT22;35254;47.990;-1.608;2023-06-26T05:00:28;25.90;50.40
49379;DHT22;35254;47.990;-1.608;2023-06-26T05:02:53;25.80;50.40
49379;DHT22;35254;47.990;-1.608;2023-06-26T05:05:27;25.90;50.40
49379;DHT22;35254;47.990;-1.608;2023-06-26T05:07:56;25.90;50.50
49379;DHT22;35254;47.990;-1.608;2023-06-26T05:10:22;25.90;50.30
49379;DHT22;35254;47.990;-1.608;2023-06-26T05:12:48;25.90;50.50
49379;DHT22;35254;47.990;-1.608;2023-06-26T05:15:13;25.80;50.50
49379;DHT22;35254;47.990;-1.608;2023-06-26T05:17:39;25.90;50.50
49379;DHT22;35254;47.990;-1.608;2023-06-26T05:20:05;25.80;50.70
49379;DHT22;35254;47.990;-1.608;2023-06-26T05:22:32;25.80;50.80
49379;DHT22;35254;47.990;-1.608;2023-06-26T05:24:59;25.80;50.50
49379;DHT22;35254;47.990;-1.608;2023-06-26T05:27:26;25.80;50.70
49379;DHT22;35254;47.990;-1.608;2023-06-26T05:29:52;25.80;50.70
49379;DHT22;35254;47.990;-1.608;2023-06-26T05:32:18;25.80;50.50
49379;DHT22;35254;47.990;-1.608;2023-06-26T05:34:47;25.80;50.60
49379;DHT22;35254;47.990;-1.608;2023-06-26T05:37:20;25.80;50.90
49379;DHT22;35254;47.990;-1.608;2023-06-26T05:39:47;25.70;50.50
49379;DHT22;35254;47.990;-1.608;2023-06-26T05:42:13;25.80;51.00
49379;DHT22;35254;47.990;-1.608;2023-06-26T05:44:39;25.70;50.80
49379;DHT22;35254;47.990;-1.608;2023-06-26T05:47:05;25.70;50.90
49379;DHT22;35254;47.990;-1.608;2023-06-26T05:49:30;25.70;51.00
49379;DHT22;35254;47.990;-1.608;2023-06-26T05:51:56;25.70;50.90
49379;DHT22;35254;47.990;-1.608;2023-06-26T05:54:23;25.70;50.80
49379;DHT22;35254;47.990;-1.608;2023-06-26T05:56:51;25.70;50.90
49379;DHT22;35254;47.990;-1.608;2023-06-26T05:59:19;25.70;50.90
49379;DHT22;35254;47.990;-1.608;2023-06-26T06:01:45;25.60;50.20
49379;DHT22;35254;47.990;-1.608;2023-06-26T06:04:10;25.50;51.20
49379;DHT22;35254;47.990;-1.608;2023-06-26T06:06:36;25.30;51.10
49379;DHT22;35254;47.990;-1.608;2023-06-26T06:09:02;25.20;51.40
49379;DHT22;35254;47.990;-1.608;2023-06-26T06:11:28;25.10;51.50
49379;DHT22;35254;47.990;-1.608;2023-06-26T06:13:54;25.10;51.20
49379;DHT22;35254;47.990;-1.608;2023-06-26T06:16:19;25.00;52.00
49379;DHT22;35254;47.990;-1.608;2023-06-26T06:18:45;25.00;53.30
49379;DHT22;35254;47.990;-1.608;2023-06-26T06:21:10;25.00;51.50
49379;DHT22;35254;47.990;-1.608;2023-06-26T06:23:36;25.00;51.40
49379;DHT22;35254;47.990;-1.608;2023-06-26T06:26:03;25.10;51.30
49379;DHT22;35254;47.990;-1.608;2023-06-26T06:28:29;25.10;51.10
49379;DHT22;35254;47.990;-1.608;2023-06-26T06:30:55;25.10;51.10
49379;DHT22;35254;47.990;-1.608;2023-06-26T06:33:20;25.00;51.10
49379;DHT22;35254;47.990;-1.608;2023-06-26T06:35:46;25.00;51.10
49379;DHT22;35254;47.990;-1.608;2023-06-26T06:38:12;25.00;51.10
49379;DHT22;35254;47.990;-1.608;2023-06-26T06:40:37;25.00;51.20
49379;DHT22;35254;47.990;-1.608;2023-06-26T06:43:03;25.00;51.10
49379;DHT22;35254;47.990;-1.608;2023-06-26T06:45:29;25.00;51.20
49379;DHT22;35254;47.990;-1.608;2023-06-26T06:47:54;25.00;51.40
49379;DHT22;35254;47.990;-1.608;2023-06-26T06:50:20;24.90;51.30
49379;DHT22;35254;47.990;-1.608;2023-06-26T06:52:46;24.90;51.70
49379;DHT22;35254;47.990;-1.608;2023-06-26T06:55:11;24.90;51.50
49379;DHT22;35254;47.990;-1.608;2023-06-26T06:57:38;25.00;51.10
49379;DHT22;35254;47.990;-1.608;2023-06-26T07:00:05;24.90;51.30
49379;DHT22;35254;47.990;-1.608;2023-06-26T07:02:34;24.90;51.50
49379;DHT22;35254;47.990;-1.608;2023-06-26T07:05:01;24.90;51.60
49379;DHT22;35254;47.990;-1.608;2023-06-26T07:07:29;24.90;51.50
49379;DHT22;35254;47.990;-1.608;2023-06-26T07:09:59;24.90;51.20
49379;DHT22;35254;47.990;-1.608;2023-06-26T07:12:25;24.90;51.00
49379;DHT22;35254;47.990;-1.608;2023-06-26T07:14:51;24.90;50.90
49379;DHT22;35254;47.990;-1.608;2023-06-26T07:17:17;24.90;51.30
49379;DHT22;35254;47.990;-1.608;2023-06-26T07:19:42;24.90;50.90
49379;DHT22;35254;47.990;-1.608;2023-06-26T07:22:08;24.80;50.50
49379;DHT22;35254;47.990;-1.608;2023-06-26T07:24:33;24.80;50.60
49379;DHT22;35254;47.990;-1.608;2023-06-26T07:26:59;24.80;50.10
49379;DHT22;35254;47.990;-1.608;2023-06-26T07:29:26;24.80;50.20
49379;DHT22;35254;47.990;-1.608;2023-06-26T07:31:51;24.80;50.20
49379;DHT22;35254;47.990;-1.608;2023-06-26T07:34:17;24.80;50.50
49379;DHT22;35254;47.990;-1.608;2023-06-26T07:36:42;24.80;50.40
49379;DHT22;35254;47.990;-1.608;2023-06-26T07:39:08;24.80;50.60
49379;DHT22;35254;47.990;-1.608;2023-06-26T07:41:34;24.80;50.20
49379;DHT22;35254;47.990;-1.608;2023-06-26T07:43:59;24.80;50.10
49379;DHT22;35254;47.990;-1.608;2023-06-26T07:46:25;24.80;50.10
49379;DHT22;35254;47.990;-1.608;2023-06-26T07:48:50;24.80;50.10
49379;DHT22;35254;47.990;-1.608;2023-06-26T07:51:16;24.80;50.10
49379;DHT22;35254;47.990;-1.608;2023-06-26T07:53:42;24.80;50.10
49379;DHT22;35254;47.990;-1.608;2023-06-26T07:56:07;24.80;50.10
49379;DHT22;35254;47.990;-1.608;2023-06-26T07:58:33;24.80;50.10
49379;DHT22;35254;47.990;-1.608;2023-06-26T08:00:58;24.80;49.90
49379;DHT22;35254;47.990;-1.608;2023-06-26T08:03:24;24.80;50.20
49379;DHT22;35254;47.990;-1.608;2023-06-26T08:05:49;24.80;50.50
49379;DHT22;35254;47.990;-1.608;2023-06-26T08:08:15;24.90;50.50
49379;DHT22;35254;47.990;-1.608;2023-06-26T08:10:41;24.90;50.40
49379;DHT22;35254;47.990;-1.608;2023-06-26T08:13:06;24.90;50.70
49379;DHT22;35254;47.990;-1.608;2023-06-26T08:15:32;24.90;50.60
49379;DHT22;35254;47.990;-1.608;2023-06-26T08:17:58;24.90;51.00
49379;DHT22;35254;47.990;-1.608;2023-06-26T08:20:23;24.90;51.10
49379;DHT22;35254;47.990;-1.608;2023-06-26T08:22:49;24.90;51.50
49379;DHT22;35254;47.990;-1.608;2023-06-26T08:25:17;24.90;51.50
49379;DHT22;35254;47.990;-1.608;2023-06-26T08:27:42;24.90;51.40
49379;DHT22;35254;47.990;-1.608;2023-06-26T08:30:08;24.90;51.90
49379;DHT22;35254;47.990;-1.608;2023-06-26T08:32:34;25.00;51.70
49379;DHT22;35254;47.990;-1.608;2023-06-26T08:35:00;24.90;51.90
49379;DHT22;35254;47.990;-1.608;2023-06-26T08:37:29;25.00;52.40
49379;DHT22;35254;47.990;-1.608;2023-06-26T08:39:56;25.00;52.30
49379;DHT22;35254;47.990;-1.608;2023-06-26T08:42:22;25.00;52.40
49379;DHT22;35254;47.990;-1.608;2023-06-26T08:44:48;25.00;52.20
49379;DHT22;35254;47.990;-1.608;2023-06-26T08:47:14;25.00;52.40
49379;DHT22;35254;47.990;-1.608;2023-06-26T08:50:04;25.00;52.50
49379;DHT22;35254;47.990;-1.608;2023-06-26T08:52:46;25.00;52.70
49379;DHT22;35254;47.990;-1.608;2023-06-26T08:55:16;25.00;52.70
49379;DHT22;35254;47.990;-1.608;2023-06-26T08:57:41;25.00;52.80
49379;DHT22;35254;47.990;-1.608;2023-06-26T09:00:08;25.00;52.10
49379;DHT22;35254;47.990;-1.608;2023-06-26T09:02:35;25.00;49.30
49379;DHT22;35254;47.990;-1.608;2023-06-26T09:05:02;24.90;47.40
49379;DHT22;35254;47.990;-1.608;2023-06-26T09:07:28;24.90;47.00
49379;DHT22;35254;47.990;-1.608;2023-06-26T09:09:54;24.90;47.50
49379;DHT22;35254;47.990;-1.608;2023-06-26T09:12:20;24.90;46.20
49379;DHT22;35254;47.990;-1.608;2023-06-26T09:14:47;24.90;45.90
49379;DHT22;35254;47.990;-1.608;2023-06-26T09:17:16;24.90;47.90
49379;DHT22;35254;47.990;-1.608;2023-06-26T09:19:45;24.90;48.20
49379;DHT22;35254;47.990;-1.608;2023-06-26T09:22:12;24.90;48.70
49379;DHT22;35254;47.990;-1.608;2023-06-26T09:24:41;24.90;49.00
49379;DHT22;35254;47.990;-1.608;2023-06-26T09:27:09;24.90;50.00
49379;DHT22;35254;47.990;-1.608;2023-06-26T09:29:35;25.00;50.60
49379;DHT22;35254;47.990;-1.608;2023-06-26T09:32:00;25.00;51.70
49379;DHT22;35254;47.990;-1.608;2023-06-26T09:34:33;25.00;52.10
49379;DHT22;35254;47.990;-1.608;2023-06-26T09:36:59;25.00;51.60
49379;DHT22;35254;47.990;-1.608;2023-06-26T09:39:30;25.00;51.50
49379;DHT22;35254;47.990;-1.608;2023-06-26T09:41:56;25.00;51.50
49379;DHT22;35254;47.990;-1.608;2023-06-26T09:44:23;25.10;51.60
49379;DHT22;35254;47.990;-1.608;2023-06-26T09:46:49;25.10;51.80
49379;DHT22;35254;47.990;-1.608;2023-06-26T09:49:14;25.10;51.80
49379;DHT22;35254;47.990;-1.608;2023-06-26T09:51:41;25.10;51.90
49379;DHT22;35254;47.990;-1.608;2023-06-26T09:54:08;25.00;51.90
49379;DHT22;35254;47.990;-1.608;2023-06-26T09:56:35;25.10;52.10
49379;DHT22;35254;47.990;-1.608;2023-06-26T09:59:05;25.10;52.20
49379;DHT22;35254;47.990;-1.608;2023-06-26T10:01:31;25.10;52.30
49379;DHT22;35254;47.990;-1.608;2023-06-26T10:03:57;25.10;52.40
49379;DHT22;35254;47.990;-1.608;2023-06-26T10:06:36;25.10;52.50
49379;DHT22;35254;47.990;-1.608;2023-06-26T10:09:03;25.10;52.60
49379;DHT22;35254;47.990;-1.608;2023-06-26T10:11:44;25.10;52.50
49379;DHT22;35254;47.990;-1.608;2023-06-26T10:14:12;25.10;52.60
49379;DHT22;35254;47.990;-1.608;2023-06-26T10:16:39;25.20;52.70
49379;DHT22;35254;47.990;-1.608;2023-06-26T10:19:08;25.10;52.70
49379;DHT22;35254;47.990;-1.608;2023-06-26T10:21:37;25.20;52.60
49379;DHT22;35254;47.990;-1.608;2023-06-26T10:24:05;25.10;52.90
49379;DHT22;35254;47.990;-1.608;2023-06-26T10:26:35;25.20;53.50
49379;DHT22;35254;47.990;-1.608;2023-06-26T10:29:01;25.10;53.40
49379;DHT22;35254;47.990;-1.608;2023-06-26T10:31:29;25.10;53.30
49379;DHT22;35254;47.990;-1.608;2023-06-26T10:33:55;25.10;53.20
49379;DHT22;35254;47.990;-1.608;2023-06-26T10:36:28;25.20;53.50
49379;DHT22;35254;47.990;-1.608;2023-06-26T10:39:05;25.20;53.40
49379;DHT22;35254;47.990;-1.608;2023-06-26T10:41:37;25.20;53.50
49379;DHT22;35254;47.990;-1.608;2023-06-26T10:44:10;25.20;53.50
49379;DHT22;35254;47.990;-1.608;2023-06-26T10:46:56;25.20;53.60
49379;DHT22;35254;47.990;-1.608;2023-06-26T10:49:28;25.20;53.70
49379;DHT22;35254;47.990;-1.608;2023-06-26T10:51:55;25.20;53.90
49379;DHT22;35254;47.990;-1.608;2023-06-26T10:54:27;25.20;53.70
49379;DHT22;35254;47.990;-1.608;2023-06-26T10:56:55;25.20;53.70
49379;DHT22;35254;47.990;-1.608;2023-06-26T10:59:26;25.20;54.00
49379;DHT22;35254;47.990;-1.608;2023-06-26T11:01:56;25.10;53.90
49379;DHT22;35254;47.990;-1.608;2023-06-26T11:12:38;25.20;54.10
49379;DHT22;35254;47.990;-1.608;2023-06-26T11:17:37;25.20;54.00
49379;DHT22;35254;47.990;-1.608;2023-06-26T11:20:05;25.20;53.80
49379;DHT22;35254;47.990;-1.608;2023-06-26T11:22:34;25.20;53.50
49379;DHT22;35254;47.990;-1.608;2023-06-26T11:25:01;25.20;54.50
49379;DHT22;35254;47.990;-1.608;2023-06-26T11:27:43;25.20;55.80
49379;DHT22;35254;47.990;-1.608;2023-06-26T11:30:10;25.20;55.20
49379;DHT22;35254;47.990;-1.608;2023-06-26T11:32:37;25.20;55.30
49379;DHT22;35254;47.990;-1.608;2023-06-26T11:35:03;25.20;55.90
49379;DHT22;35254;47.990;-1.608;2023-06-26T11:37:31;25.20;55.60
49379;DHT22;35254;47.990;-1.608;2023-06-26T11:39:56;25.20;55.90
49379;DHT22;35254;47.990;-1.608;2023-06-26T11:42:23;25.20;55.70
49379;DHT22;35254;47.990;-1.608;2023-06-26T11:44:50;25.20;55.70
49379;DHT22;35254;47.990;-1.608;2023-06-26T11:47:18;25.20;55.70
49379;DHT22;35254;47.990;-1.608;2023-06-26T11:49:49;25.20;55.30
49379;DHT22;35254;47.990;-1.608;2023-06-26T11:52:15;25.20;55.80
49379;DHT22;35254;47.990;-1.608;2023-06-26T11:54:42;25.20;55.60
49379;DHT22;35254;47.990;-1.608;2023-06-26T11:57:08;25.20;55.50
49379;DHT22;35254;47.990;-1.608;2023-06-26T11:59:38;25.20;55.80
49379;DHT22;35254;47.990;-1.608;2023-06-26T12:02:11;25.20;55.60
49379;DHT22;35254;47.990;-1.608;2023-06-26T12:04:40;25.20;56.00
49379;DHT22;35254;47.990;-1.608;2023-06-26T12:07:07;25.20;55.70
49379;DHT22;35254;47.990;-1.608;2023-06-26T12:09:41;25.20;56.20
49379;DHT22;35254;47.990;-1.608;2023-06-26T12:12:10;25.20;56.10
49379;DHT22;35254;47.990;-1.608;2023-06-26T12:14:36;25.20;56.00
49379;DHT22;35254;47.990;-1.608;2023-06-26T12:17:10;25.20;54.40
49379;DHT22;35254;47.990;-1.608;2023-06-26T12:19:46;25.20;55.70
49379;DHT22;35254;47.990;-1.608;2023-06-26T12:22:17;25.20;55.70
49379;DHT22;35254;47.990;-1.608;2023-06-26T12:24:43;25.30;55.70
49379;DHT22;35254;47.990;-1.608;2023-06-26T12:27:14;25.20;55.80
49379;DHT22;35254;47.990;-1.608;2023-06-26T12:29:45;25.20;55.60
49379;DHT22;35254;47.990;-1.608;2023-06-26T12:32:12;25.20;55.30
49379;DHT22;35254;47.990;-1.608;2023-06-26T12:34:40;25.30;55.70
49379;DHT22;35254;47.990;-1.608;2023-06-26T12:37:11;25.30;55.10
49379;DHT22;35254;47.990;-1.608;2023-06-26T12:42:23;25.30;53.80
49379;DHT22;35254;47.990;-1.608;2023-06-26T12:44:49;25.30;53.70
49379;DHT22;35254;47.990;-1.608;2023-06-26T12:47:16;25.30;54.00
49379;DHT22;35254;47.990;-1.608;2023-06-26T12:49:49;25.30;54.20
49379;DHT22;35254;47.990;-1.608;2023-06-26T12:52:15;25.30;53.90
49379;DHT22;35254;47.990;-1.608;2023-06-26T12:54:43;25.30;54.00
49379;DHT22;35254;47.990;-1.608;2023-06-26T12:57:09;25.30;53.90
49379;DHT22;35254;47.990;-1.608;2023-06-26T12:59:38;25.40;54.00
49379;DHT22;35254;47.990;-1.608;2023-06-26T13:02:04;25.40;54.10
49379;DHT22;35254;47.990;-1.608;2023-06-26T13:04:30;25.40;53.90
49379;DHT22;35254;47.990;-1.608;2023-06-26T13:06:56;25.40;55.10
49379;DHT22;35254;47.990;-1.608;2023-06-26T13:09:24;25.40;54.50
49379;DHT22;35254;47.990;-1.608;2023-06-26T13:11:51;25.40;55.10
49379;DHT22;35254;47.990;-1.608;2023-06-26T13:14:16;25.40;54.60
49379;DHT22;35254;47.990;-1.608;2023-06-26T13:16:42;25.40;54.70
49379;DHT22;35254;47.990;-1.608;2023-06-26T13:19:08;25.40;54.80
49379;DHT22;35254;47.990;-1.608;2023-06-26T13:21:34;25.40;55.20
49379;DHT22;35254;47.990;-1.608;2023-06-26T13:24:01;25.40;55.10
49379;DHT22;35254;47.990;-1.608;2023-06-26T13:26:27;25.40;54.60
49379;DHT22;35254;47.990;-1.608;2023-06-26T13:28:54;25.50;54.90
49379;DHT22;35254;47.990;-1.608;2023-06-26T13:31:20;25.40;54.60
49379;DHT22;35254;47.990;-1.608;2023-06-26T13:33:46;25.40;54.80
49379;DHT22;35254;47.990;-1.608;2023-06-26T13:36:14;25.40;54.50
49379;DHT22;35254;47.990;-1.608;2023-06-26T13:38:39;25.40;55.30
49379;DHT22;35254;47.990;-1.608;2023-06-26T13:41:05;25.40;55.10
49379;DHT22;35254;47.990;-1.608;2023-06-26T13:43:31;25.40;54.70
49379;DHT22;35254;47.990;-1.608;2023-06-26T13:45:57;25.50;54.80
49379;DHT22;35254;47.990;-1.608;2023-06-26T13:48:22;25.50;55.10
49379;DHT22;35254;47.990;-1.608;2023-06-26T13:50:51;25.50;54.90
49379;DHT22;35254;47.990;-1.608;2023-06-26T13:53:17;25.40;54.40
49379;DHT22;35254;47.990;-1.608;2023-06-26T13:55:43;25.50;54.20
49379;DHT22;35254;47.990;-1.608;2023-06-26T13:58:09;25.40;54.50
49379;DHT22;35254;47.990;-1.608;2023-06-26T14:00:36;25.50;54.50
49379;DHT22;35254;47.990;-1.608;2023-06-26T14:03:03;25.50;54.40
49379;DHT22;35254;47.990;-1.608;2023-06-26T14:05:33;25.50;54.60
49379;DHT22;35254;47.990;-1.608;2023-06-26T14:07:58;25.50;55.00
49379;DHT22;35254;47.990;-1.608;2023-06-26T14:10:24;25.50;54.80
49379;DHT22;35254;47.990;-1.608;2023-06-26T14:12:50;25.50;55.40
49379;DHT22;35254;47.990;-1.608;2023-06-26T14:15:16;25.50;55.90
49379;DHT22;35254;47.990;-1.608;2023-06-26T14:17:42;25.50;54.70
49379;DHT22;35254;47.990;-1.608;2023-06-26T14:20:09;25.50;55.30
49379;DHT22;35254;47.990;-1.608;2023-06-26T14:22:41;25.50;55.20
49379;DHT22;35254;47.990;-1.608;2023-06-26T14:25:08;25.50;55.40
49379;DHT22;35254;47.990;-1.608;2023-06-26T14:27:34;25.50;55.20
49379;DHT22;35254;47.990;-1.608;2023-06-26T14:29:59;25.60;55.50
49379;DHT22;35254;47.990;-1.608;2023-06-26T14:32:26;25.60;55.90
49379;DHT22;35254;47.990;-1.608;2023-06-26T14:34:52;25.50;56.00
49379;DHT22;35254;47.990;-1.608;2023-06-26T14:37:17;25.50;55.90
49379;DHT22;35254;47.990;-1.608;2023-06-26T14:39:44;25.50;56.00
49379;DHT22;35254;47.990;-1.608;2023-06-26T14:42:10;25.50;55.80
49379;DHT22;35254;47.990;-1.608;2023-06-26T14:44:36;25.50;55.70
49379;DHT22;35254;47.990;-1.608;2023-06-26T14:47:01;25.50;55.60
49379;DHT22;35254;47.990;-1.608;2023-06-26T14:49:27;25.50;55.40
49379;DHT22;35254;47.990;-1.608;2023-06-26T14:51:53;25.50;55.00
49379;DHT22;35254;47.990;-1.608;2023-06-26T14:54:18;25.60;55.10
49379;DHT22;35254;47.990;-1.608;2023-06-26T14:56:44;25.50;54.30
49379;DHT22;35254;47.990;-1.608;2023-06-26T14:59:11;25.60;54.40
49379;DHT22;35254;47.990;-1.608;2023-06-26T15:01:38;25.60;54.40
49379;DHT22;35254;47.990;-1.608;2023-06-26T15:04:04;25.50;54.50
49379;DHT22;35254;47.990;-1.608;2023-06-26T15:06:30;25.60;54.30
49379;DHT22;35254;47.990;-1.608;2023-06-26T15:08:56;25.60;55.40
49379;DHT22;35254;47.990;-1.608;2023-06-26T15:11:21;25.60;55.30
49379;DHT22;35254;47.990;-1.608;2023-06-26T15:13:47;25.60;55.80
49379;DHT22;35254;47.990;-1.608;2023-06-26T15:16:13;25.60;54.80
49379;DHT22;35254;47.990;-1.608;2023-06-26T15:18:39;25.60;54.70
49379;DHT22;35254;47.990;-1.608;2023-06-26T15:21:05;25.60;55.00
49379;DHT22;35254;47.990;-1.608;2023-06-26T15:23:30;25.60;54.40
49379;DHT22;35254;47.990;-1.608;2023-06-26T15:25:56;25.60;55.40
49379;DHT22;35254;47.990;-1.608;2023-06-26T15:28:22;25.60;55.60
49379;DHT22;35254;47.990;-1.608;2023-06-26T15:30:48;25.60;55.10
49379;DHT22;35254;47.990;-1.608;2023-06-26T15:33:14;25.60;55.70
49379;DHT22;35254;47.990;-1.608;2023-06-26T15:35:40;25.60;55.60
49379;DHT22;35254;47.990;-1.608;2023-06-26T15:38:06;25.60;55.00
49379;DHT22;35254;47.990;-1.608;2023-06-26T15:40:31;25.60;55.40